Milwaukee, Wisconsin
Current Conditions -  °F | °C
As of 2:52 AM on Sunday 21 Dec 2014 (Local Time) from KMKE Reporting Station
Overcast Overcast  
Wind Chill: 26°   Ceiling: 4000
Heat Index: 32°   Visibility: 7mi
Dew Point: 25°   Wind: 6mph
Humidity: 75%   Direction: 180°S
Pressure: 30.22"   Gusts: NA
Location:  43.04°N, 87.91°W
Report Text: KMKE 210852Z 18005KT 7SM OVC040 00/M04 A3022 RMK AO2 SLP242 T00001039 56003
Loading
Personal Weather Stations






























Interactive Weather Map New forecast layout! Learn more

10-Day Weather Forecast

Advertisements
Track Severe Weather on mobile